Time;durP1;ratioP1;P1;durP2;ratioP2;P2;SDS_P1;SDS_P2;PMS_P1;PMS_P2;Temp;Humidity;BMP_temperature;BMP_pressure;BME280_temperature;BME280_humidity;BME280_pressure;Samples;Min_cycle;Max_cycle;Signal;HPM_P1;HPM_P2
2024/03/04 00:00:29;;;;;;;0.00;0.00;;;;;;;2.90;95.68;99584.13;6218567;23;20004;-74
2024/03/04 00:02:55;;;;;;;0.00;0.00;;;;;;;2.91;95.83;99583.09;6219430;23;20000;-74
2024/03/04 00:05:21;;;;;;;0.00;0.00;;;;;;;2.87;95.27;99565.72;6196912;23;20091;-73
2024/03/04 00:07:46;;;;;;;0.00;0.00;;;;;;;2.82;95.62;99557.50;6190370;23;20017;-76
2024/03/04 00:10:12;;;;;;;0.00;0.00;;;;;;;2.95;95.71;99578.88;6221577;23;20019;-74
2024/03/04 00:12:37;;;;;;;0.10;0.10;;;;;;;2.85;95.80;99575.94;6244012;23;20343;-74
2024/03/04 00:15:04;;;;;;;0.00;0.00;;;;;;;2.87;96.23;99575.69;6221711;23;20319;-74
2024/03/04 00:17:30;;;;;;;0.00;0.00;;;;;;;2.76;95.97;99569.22;6195547;23;20000;-73
2024/03/04 00:19:56;;;;;;;0.00;0.00;;;;;;;2.72;96.07;99577.00;6221993;23;20097;-75
2024/03/04 00:22:22;;;;;;;0.00;0.00;;;;;;;2.73;96.32;99585.91;6195174;23;20024;-74
2024/03/04 00:24:49;;;;;;;0.00;0.00;;;;;;;2.64;96.74;99576.53;6243845;23;20024;-74
2024/03/04 00:27:14;;;;;;;0.10;0.10;;;;;;;2.69;96.41;99584.75;6222289;23;20012;-75
2024/03/04 00:29:40;;;;;;;0.00;0.00;;;;;;;2.60;97.07;99584.28;6201367;23;20012;-74
2024/03/04 00:32:06;;;;;;;0.00;0.00;;;;;;;2.60;96.92;99592.38;6200461;23;20011;-74
2024/03/04 00:34:32;;;;;;;0.00;0.00;;;;;;;2.55;97.11;99590.34;6225309;23;20004;-74
2024/03/04 00:36:57;;;;;;;0.00;0.00;;;;;;;2.50;97.47;99575.91;6249891;23;20031;-73
2024/03/04 00:39:23;;;;;;;0.10;0.10;;;;;;;2.29;97.28;99558.44;6224033;23;20012;-74
2024/03/04 00:41:48;;;;;;;0.00;0.00;;;;;;;2.34;97.82;99564.78;6249849;23;20008;-74
2024/03/04 00:44:14;;;;;;;0.00;0.00;;;;;;;2.45;97.63;99557.72;6249932;23;20419;-77
2024/03/04 00:46:42;;;;;;;0.00;0.00;;;;;;;2.55;97.06;99563.38;6222871;23;20012;-74
2024/03/04 00:49:09;;;;;;;0.10;0.10;;;;;;;2.58;97.12;99573.69;6248913;23;20028;-73
2024/03/04 00:51:36;;;;;;;0.10;0.10;;;;;;;2.53;97.79;99570.09;6225877;23;20004;-73
2024/03/04 00:54:02;;;;;;;0.00;0.00;;;;;;;2.46;97.68;99548.59;6250825;23;20450;-73
2024/03/04 00:56:27;;;;;;;0.10;0.10;;;;;;;2.45;97.60;99563.13;6225174;23;20020;-75
2024/03/04 00:58:53;;;;;;;0.00;0.00;;;;;;;2.29;97.63;99547.63;6225995;23;20008;-75
2024/03/04 01:01:18;;;;;;;0.00;0.00;;;;;;;2.29;97.96;99558.44;6224302;23;20039;-75
2024/03/04 01:03:44;;;;;;;0.10;0.10;;;;;;;2.22;98.32;99564.75;6248523;22;20018;-75
2024/03/04 01:06:10;;;;;;;0.00;0.00;;;;;;;2.23;98.81;99573.66;6222246;23;20022;-75
2024/03/04 01:08:35;;;;;;;0.00;0.00;;;;;;;2.01;98.67;99546.41;6247321;23;20423;-72
2024/03/04 01:11:01;;;;;;;0.00;0.00;;;;;;;2.08;99.76;99557.94;6248411;23;20091;-73
2024/03/04 01:13:26;;;;;;;0.10;0.10;;;;;;;2.09;99.73;99554.19;6222554;23;20000;-73
2024/03/04 01:15:52;;;;;;;0.00;0.00;;;;;;;2.18;100.00;99573.56;6197871;23;20083;-73
2024/03/04 01:18:17;;;;;;;0.00;0.00;;;;;;;2.12;100.00;99575.28;6196359;23;20757;-74
2024/03/04 01:20:46;;;;;;;0.10;0.10;;;;;;;2.03;100.00;99566.72;6221807;23;20042;-73
2024/03/04 01:23:12;;;;;;;0.00;0.00;;;;;;;2.04;100.00;99573.72;6246806;23;20027;-73
2024/03/04 01:25:38;;;;;;;0.10;0.10;;;;;;;1.98;100.00;99563.06;6248211;23;20000;-74
2024/03/04 01:28:04;;;;;;;0.00;0.00;;;;;;;1.99;100.00;99565.53;6197057;23;20087;-73
2024/03/04 01:30:29;;;;;;;0.00;0.00;;;;;;;1.97;100.00;99558.72;6219822;23;20074;-73
2024/03/04 01:32:56;;;;;;;0.10;0.10;;;;;;;1.90;100.00;99559.63;6224181;23;20012;-74
2024/03/04 01:35:23;;;;;;;0.10;0.10;;;;;;;1.94;100.00;99568.06;6219245;23;20486;-75
2024/03/04 01:37:49;;;;;;;0.00;0.00;;;;;;;1.82;100.00;99565.34;6251997;23;19996;-75
2024/03/04 01:40:14;;;;;;;0.10;0.10;;;;;;;1.82;100.00;99567.22;6196900;23;20011;-74
2024/03/04 01:42:42;;;;;;;0.10;0.10;;;;;;;1.82;100.00;99570.75;6227347;23;20280;-74
2024/03/04 01:45:23;;;;;;;0.00;0.00;;;;;;;1.80;100.00;99578.25;6247429;23;20043;-73
2024/03/04 01:47:49;;;;;;;0.10;0.10;;;;;;;1.70;100.00;99572.59;6251739;23;20008;-73
2024/03/04 01:50:14;;;;;;;0.00;0.00;;;;;;;1.70;100.00;99573.41;6201859;23;20082;-74
2024/03/04 01:52:40;;;;;;;0.00;0.00;;;;;;;1.66;100.00;99566.00;6227982;23;20015;-73
2024/03/04 01:55:06;;;;;;;0.10;0.10;;;;;;;1.61;100.00;99574.78;6199840;23;20095;-74
2024/03/04 01:57:32;;;;;;;0.00;0.00;;;;;;;1.63;100.00;99578.06;6249329;23;20139;-74
2024/03/04 01:59:58;;;;;;;0.10;0.10;;;;;;;1.53;100.00;99567.00;6248371;23;20304;-73
2024/03/04 02:02:24;;;;;;;0.00;0.00;;;;;;;1.57;100.00;99569.00;6198462;23;20063;-74
2024/03/04 02:04:49;;;;;;;0.00;0.00;;;;;;;1.56;100.00;99578.16;6199989;23;20067;-74
2024/03/04 02:07:17;;;;;;;0.10;0.10;;;;;;;1.45;100.00;99562.75;6250348;23;20016;-74
2024/03/04 02:09:44;;;;;;;0.00;0.00;;;;;;;1.53;100.00;99578.63;6251226;22;20004;-74
2024/03/04 02:12:10;;;;;;;0.10;0.10;;;;;;;1.56;100.00;99580.84;6250061;23;20000;-75
2024/03/04 02:14:36;;;;;;;0.00;0.00;;;;;;;1.56;100.00;99580.84;6250578;23;20004;-75
2024/03/04 02:17:01;;;;;;;0.00;0.00;;;;;;;1.48;100.00;99575.75;6224224;23;20034;-72
2024/03/04 02:19:27;;;;;;;0.00;0.00;;;;;;;1.46;100.00;99571.66;6198431;23;20076;-73
2024/03/04 02:22:01;;;;;;;0.00;0.00;;;;;;;1.47;100.00;99568.72;6225909;23;20015;-75
2024/03/04 02:24:26;;;;;;;0.00;0.00;;;;;;;1.44;100.00;99573.75;6256134;23;20077;-74
2024/03/04 02:26:52;;;;;;;0.00;0.00;;;;;;;1.41;100.00;99575.03;6222454;23;20004;-73
2024/03/04 02:29:18;;;;;;;0.10;0.10;;;;;;;1.40;100.00;99578.75;6225391;23;20335;-74
2024/03/04 02:31:48;;;;;;;0.10;0.10;;;;;;;1.42;100.00;99576.69;6249890;22;20012;-74
2024/03/04 02:34:14;;;;;;;0.10;0.10;;;;;;;1.37;100.00;99576.53;6223375;23;20007;-72
2024/03/04 02:36:41;;;;;;;0.10;0.10;;;;;;;1.29;100.00;99563.38;6221905;23;20079;-74
2024/03/04 02:39:10;;;;;;;0.00;0.00;;;;;;;1.17;100.00;99547.97;6249304;23;19995;-74
2024/03/04 02:41:38;;;;;;;0.10;0.10;;;;;;;1.28;100.00;99572.50;6222985;23;20012;-73
2024/03/04 02:44:04;;;;;;;0.00;0.00;;;;;;;1.27;100.00;99576.22;6246032;23;19999;-74
2024/03/04 02:46:30;;;;;;;0.10;0.10;;;;;;;1.25;100.00;99572.97;6222682;23;20015;-76
2024/03/04 02:48:55;;;;;;;0.00;0.00;;;;;;;1.14;100.00;99552.97;6221886;23;20007;-74
2024/03/04 02:51:21;;;;;;;0.00;0.00;;;;;;;1.27;100.00;99578.94;6246273;23;20036;-73
2024/03/04 02:53:46;;;;;;;0.00;0.00;;;;;;;1.15;100.00;99563.50;6220765;23;20012;-74
2024/03/04 02:56:12;;;;;;;0.00;0.00;;;;;;;1.22;100.00;99577.72;6244835;23;20427;-73
2024/03/04 02:58:37;;;;;;;0.00;0.00;;;;;;;1.18;100.00;99581.09;6221866;23;20011;-74
2024/03/04 03:01:17;;;;;;;0.00;0.00;;;;;;;1.03;100.00;99554.56;6244176;23;20716;-73
2024/03/04 03:08:55;;;;;;;0.10;0.10;;;;;;;1.01;100.00;99559.34;6280653;22;20027;-74
2024/03/04 03:11:31;;;;;;;0.10;0.10;;;;;;;0.99;100.00;99566.81;6225305;22;20032;-72
2024/03/04 03:13:58;;;;;;;0.00;0.00;;;;;;;0.75;100.00;99531.66;6203884;22;20011;-72
2024/03/04 03:16:23;;;;;;;0.10;0.10;;;;;;;0.83;100.00;99550.22;6277752;22;20078;-74
2024/03/04 03:19:00;;;;;;;;;;;;;;;;;;;;;
2024/03/04 03:21:29;;;;;;;0.10;0.10;;;;;;;0.77;100.00;99548.41;6276811;22;20485;-74
2024/03/04 03:23:55;;;;;;;0.08;0.08;;;;;;;0.78;100.00;99550.06;6227614;22;20015;-72
2024/03/04 03:26:23;;;;;;;0.00;0.00;;;;;;;0.86;100.00;99563.25;6251768;22;20008;-73
2024/03/04 03:28:48;;;;;;;0.10;0.10;;;;;;;0.88;100.00;99571.09;6248997;22;20004;-73
2024/03/04 03:31:15;;;;;;;0.00;0.00;;;;;;;0.85;100.00;99556.19;6280932;22;20010;-73
2024/03/04 03:33:41;;;;;;;0.00;0.00;;;;;;;0.79;100.00;99550.88;6224739;22;20320;-73
2024/03/04 03:36:07;;;;;;;0.00;0.00;;;;;;;0.82;100.00;99562.03;6253744;22;20034;-73
2024/03/04 03:38:33;;;;;;;0.10;0.10;;;;;;;0.87;100.00;99564.03;6248747;22;20326;-73
2024/03/04 03:41:03;;;;;;;0.10;0.10;;;;;;;0.84;100.00;99554.53;6278846;22;20000;-74
2024/03/04 03:43:28;;;;;;;0.10;0.10;;;;;;;0.96;100.00;99572.66;6227978;22;20011;-74
2024/03/04 03:45:54;;;;;;;0.10;0.10;;;;;;;0.89;100.00;99567.31;6277358;22;20011;-73
2024/03/04 03:48:19;;;;;;;0.00;0.00;;;;;;;0.81;100.00;99560.38;6252495;22;20079;-73
2024/03/04 03:50:45;;;;;;;0.00;0.00;;;;;;;0.86;100.00;99574.00;6273620;22;20027;-74
2024/03/04 03:53:10;;;;;;;0.00;0.00;;;;;;;0.56;100.00;99530.81;6254240;22;20039;-74
2024/03/04 03:55:36;;;;;;;0.10;0.10;;;;;;;0.70;100.00;99558.41;6224357;22;20007;-74
2024/03/04 03:58:02;;;;;;;0.10;0.10;;;;;;;0.72;100.00;99569.78;6227734;22;19999;-74
2024/03/04 04:00:30;;;;;;;0.10;0.10;;;;;;;0.66;100.00;99574.19;6252053;22;20008;-74
2024/03/04 04:02:59;;;;;;;0.00;0.00;;;;;;;0.64;100.00;99580.84;6227376;22;20008;-74
2024/03/04 04:05:25;;;;;;;0.00;0.00;;;;;;;0.64;100.00;99575.44;6250793;22;20008;-73
2024/03/04 04:07:50;;;;;;;0.00;0.00;;;;;;;0.65;100.00;99583.31;6225415;22;20066;-74
2024/03/04 04:10:16;;;;;;;0.00;0.00;;;;;;;0.62;100.00;99588.31;6228221;22;20086;-74
2024/03/04 04:12:41;;;;;;;0.00;0.00;;;;;;;0.55;100.00;99580.28;6250147;22;19999;-73
2024/03/04 04:15:07;;;;;;;0.10;0.10;;;;;;;0.52;100.00;99581.56;6203480;22;20007;-75
2024/03/04 04:17:33;;;;;;;0.00;0.00;;;;;;;0.45;100.00;99572.75;6278215;22;20008;-73
2024/03/04 04:20:00;;;;;;;0.00;0.00;;;;;;;0.42;100.00;99593.88;6254403;22;20060;-74
2024/03/04 04:22:29;;;;;;;0.10;0.10;;;;;;;0.31;100.00;99582.78;6226686;22;20007;-75
2024/03/04 04:24:55;;;;;;;0.10;0.10;;;;;;;0.29;100.00;99590.25;6254157;22;20012;-73
2024/03/04 04:27:22;;;;;;;0.00;0.00;;;;;;;0.30;100.00;99591.06;6253616;22;20010;-73
2024/03/04 04:29:49;;;;;;;0.10;0.10;;;;;;;0.23;100.00;99579.53;6201595;22;19999;-74
2024/03/04 04:32:15;;;;;;;0.10;0.10;;;;;;;0.20;100.00;99583.47;6224424;22;19999;-75
2024/03/04 04:34:41;;;;;;;0.10;0.10;;;;;;;0.22;100.00;99588.63;6200537;22;20381;-74
2024/03/04 04:37:12;;;;;;;0.10;0.10;;;;;;;0.19;100.00;99583.69;6250810;22;20057;-73
2024/03/04 04:39:40;;;;;;;0.00;0.00;;;;;;;0.11;100.00;99572.16;6252447;22;20038;-74
2024/03/04 04:42:06;;;;;;;0.10;0.10;;;;;;;0.09;100.00;99573.41;6226762;22;20007;-74
2024/03/04 04:44:33;;;;;;;0.10;0.10;;;;;;;0.09;100.00;99576.09;6228733;22;20007;-73
2024/03/04 04:46:58;;;;;;;0.00;0.00;;;;;;;0.04;100.00;99566.00;6225759;22;20011;-73
2024/03/04 04:49:24;;;;;;;0.10;0.10;;;;;;;0.09;100.00;99568.88;6228981;22;20026;-74
2024/03/04 04:51:50;;;;;;;0.10;0.10;;;;;;;0.08;100.00;99572.59;6255457;22;20019;-74
2024/03/04 04:54:15;;;;;;;0.00;0.00;;;;;;;0.06;100.00;99569.31;6253153;22;20011;-74
2024/03/04 04:56:41;;;;;;;0.10;0.10;;;;;;;0.06;100.00;99572.00;6229277;22;20015;-73
2024/03/04 04:59:07;;;;;;;0.00;0.00;;;;;;;0.06;100.00;99574.69;6252796;22;20004;-74
2024/03/04 05:01:37;;;;;;;0.10;0.10;;;;;;;0.03;100.00;99575.13;6227234;22;19995;-74
2024/03/04 05:04:02;;;;;;;0.10;0.10;;;;;;;0.02;100.00;99573.47;6250726;22;20007;-75
2024/03/04 05:06:28;;;;;;;0.10;0.10;;;;;;;0.01;100.00;99577.19;6226917;22;20308;-74
2024/03/04 05:08:53;;;;;;;0.10;0.10;;;;;;;-0.05;100.00;99567.31;6227660;22;20020;-75
2024/03/04 05:11:21;;;;;;;0.00;0.00;;;;;;;0.00;100.00;99580.97;6201023;22;20014;-73
2024/03/04 05:13:48;;;;;;;0.10;0.10;;;;;;;0.04;100.00;99587.53;6252540;22;20444;-74
2024/03/04 05:16:14;;;;;;;0.10;0.10;;;;;;;0.01;100.00;99589.84;6201542;22;20091;-75
2024/03/04 05:18:39;;;;;;;0.00;0.00;;;;;;;-0.03;100.00;99587.59;6229144;22;20543;-74
2024/03/04 05:21:05;;;;;;;0.10;0.10;;;;;;;-0.06;100.00;99582.63;6253609;22;20010;-75
2024/03/04 05:23:31;;;;;;;0.10;0.10;;;;;;;-0.09;100.00;99583.06;6227920;22;20181;-75
2024/03/04 05:25:57;;;;;;;0.00;0.00;;;;;;;-0.10;100.00;99583.25;6280902;22;20045;-73
2024/03/04 05:28:23;;;;;;;0.00;0.00;;;;;;;-0.15;100.00;99567.78;6205898;22;20004;-73
2024/03/04 05:30:52;;;;;;;0.10;0.10;;;;;;;0.02;100.00;99583.41;6262323;22;20011;-73
2024/03/04 05:33:21;;;;;;;0.10;0.10;;;;;;;0.09;100.00;99584.16;6253588;22;20010;-73
2024/03/04 05:35:46;;;;;;;0.10;0.10;;;;;;;0.26;100.00;99584.47;6230765;22;20488;-73
2024/03/04 05:38:12;;;;;;;0.10;0.10;;;;;;;0.40;100.00;99586.00;6202028;22;19996;-73
2024/03/04 05:40:38;;;;;;;0.10;0.10;;;;;;;0.57;100.00;99574.69;6225420;22;20015;-72
2024/03/04 05:43:04;;;;;;;0.10;0.10;;;;;;;0.75;100.00;99580.13;6227694;22;20008;-74
2024/03/04 05:45:30;;;;;;;0.10;0.10;;;;;;;0.83;100.00;99569.06;6251829;22;19987;-74
2024/03/04 05:47:56;;;;;;;0.10;0.10;;;;;;;0.89;100.00;99561.13;6252117;22;20022;-72
2024/03/04 05:50:24;;;;;;;0.10;0.10;;;;;;;0.98;100.00;99560.63;6251794;22;19996;-73
2024/03/04 05:52:50;;;;;;;0.10;0.10;;;;;;;1.17;100.00;99585.69;6246087;22;20428;-72
2024/03/04 05:55:19;;;;;;;0.00;0.00;;;;;;;1.25;100.00;99587.22;6226745;22;20035;-72
2024/03/04 05:57:45;;;;;;;0.10;0.10;;;;;;;1.27;100.00;99581.63;6247332;22;20881;-72
2024/03/04 06:00:14;;;;;;;0.10;0.10;;;;;;;1.33;100.00;99586.09;6202105;22;20004;-73
2024/03/04 06:02:43;;;;;;;0.05;0.05;;;;;;;1.21;100.00;99578.78;6223867;22;20011;-73
2024/03/04 06:05:11;;;;;;;0.00;0.00;;;;;;;1.29;100.00;99587.63;6227984;22;20073;-73
2024/03/04 06:07:37;;;;;;;0.00;0.00;;;;;;;1.22;100.00;99593.88;6223353;22;20026;-72
2024/03/04 06:10:02;;;;;;;0.10;0.10;;;;;;;1.16;100.00;99586.72;6251773;22;20315;-74
2024/03/04 06:12:28;;;;;;;0.00;0.00;;;;;;;1.13;100.00;99595.25;6251635;22;20003;-73
2024/03/04 06:14:53;;;;;;;0.00;0.00;;;;;;;1.08;100.00;99587.03;6199450;22;20015;-73
2024/03/04 06:17:19;;;;;;;0.10;0.10;;;;;;;1.13;100.00;99594.44;6202173;22;20031;-74
2024/03/04 06:19:44;;;;;;;0.00;0.00;;;;;;;1.05;100.00;99584.75;6197394;22;20398;-73
2024/03/04 06:22:10;;;;;;;0.00;0.00;;;;;;;1.06;100.00;99594.50;6226365;22;20015;-72
2024/03/04 06:24:35;;;;;;;0.10;0.10;;;;;;;0.99;100.00;99591.88;6198846;22;20007;-73
2024/03/04 06:27:04;;;;;;;0.10;0.10;;;;;;;1.02;100.00;99598.69;6200638;22;20426;-73
2024/03/04 06:29:30;;;;;;;0.00;0.00;;;;;;;1.03;100.00;99600.34;6226262;22;20011;-73
2024/03/04 06:31:56;;;;;;;0.00;0.00;;;;;;;1.04;100.00;99597.41;6225456;22;20011;-74
2024/03/04 06:34:22;;;;;;;0.00;0.00;;;;;;;1.10;100.00;99595.69;6253311;22;20004;-73
2024/03/04 06:36:48;;;;;;;0.10;0.10;;;;;;;1.03;100.00;99576.91;6250081;22;20002;-73
2024/03/04 06:39:20;;;;;;;0.10;0.10;;;;;;;1.18;100.00;99589.19;6200552;22;19984;-72
2024/03/04 06:41:50;;;;;;;0.10;0.10;;;;;;;1.28;100.00;99589.47;6278834;22;20019;-73
2024/03/04 06:44:16;;;;;;;0.10;0.10;;;;;;;1.36;100.00;99594.56;6249848;22;20334;-72
2024/03/04 06:46:42;;;;;;;0.00;0.00;;;;;;;1.44;100.00;99596.13;6202051;22;20067;-72
2024/03/04 06:49:07;;;;;;;0.00;0.00;;;;;;;1.44;100.00;99585.34;6248179;22;20000;-74
2024/03/04 06:51:35;;;;;;;0.00;0.00;;;;;;;1.53;100.00;99593.94;6252625;22;20018;-73
2024/03/04 06:54:05;;;;;;;0.00;0.00;;;;;;;1.54;100.00;99596.41;6223591;22;20383;-72
2024/03/04 06:56:30;;;;;;;0.10;0.10;;;;;;;1.68;100.00;99607.84;6252485;22;20011;-72
2024/03/04 06:59:05;;;;;;;0.00;0.00;;;;;;;1.73;100.00;99604.47;6250983;22;20322;-72
2024/03/04 07:01:30;;;;;;;;;;;;;;;1.85;100.00;99608.03;6250542;22;20004;-71
2024/03/04 07:03:56;;;;;;;0.10;0.10;;;;;;;1.96;100.00;99602.91;6229123;22;19907;-72
2024/03/04 07:06:22;;;;;;;0.10;0.10;;;;;;;2.00;100.00;99593.31;6276047;22;19996;-72
2024/03/04 07:08:48;;;;;;;0.10;0.10;;;;;;;2.10;100.00;99598.97;6251544;22;20006;-73
2024/03/04 07:11:13;;;;;;;0.10;0.10;;;;;;;2.13;100.00;99589.59;6277314;22;20027;-73
2024/03/04 07:13:40;;;;;;;0.10;0.10;;;;;;;2.29;100.00;99604.28;6225402;22;19999;-73
2024/03/04 07:16:07;;;;;;;0.10;0.10;;;;;;;2.34;100.00;99599.03;6249585;22;20012;-74
2024/03/04 07:18:33;;;;;;;0.00;0.00;;;;;;;2.43;100.00;99597.63;6228174;22;20557;-74
2024/03/04 07:20:58;;;;;;;0.10;0.10;;;;;;;2.50;100.00;99603.75;6251895;22;20007;-73
2024/03/04 07:23:25;;;;;;;0.10;0.10;;;;;;;2.59;100.00;99602.34;6200633;22;20062;-73
2024/03/04 07:25:50;;;;;;;0.00;0.00;;;;;;;2.74;100.00;99598.34;6205735;22;20012;-76
2024/03/04 07:28:16;;;;;;;0.03;0.03;;;;;;;2.92;100.00;99606.34;6225049;22;20095;-76
2024/03/04 07:30:41;;;;;;;0.08;0.08;;;;;;;3.10;100.00;99604.56;6232005;22;20049;-76
2024/03/04 07:33:09;;;;;;;0.00;0.00;;;;;;;3.25;100.00;99604.88;6202290;22;20012;-77
2024/03/04 07:35:35;;;;;;;0.00;0.00;;;;;;;3.44;100.00;99596.63;6204457;22;20513;-78
2024/03/04 07:38:00;;;;;;;0.00;0.00;;;;;;;3.58;100.00;99598.00;6278836;22;19995;-77
2024/03/04 07:40:26;;;;;;;0.00;0.00;;;;;;;3.56;100.00;99578.47;6226005;22;20007;-76
2024/03/04 07:42:51;;;;;;;0.10;0.10;;;;;;;3.75;100.00;99597.22;6252695;22;20003;-76
2024/03/04 07:45:17;;;;;;;0.10;0.10;;;;;;;3.75;100.00;99586.41;6224325;22;20008;-78
2024/03/04 07:47:42;;;;;;;0.00;0.00;;;;;;;3.83;100.00;99591.44;6224865;22;20008;-76
2024/03/04 07:50:08;;;;;;;0.00;0.00;;;;;;;3.86;100.00;99584.75;6223906;22;20077;-78
2024/03/04 07:52:34;;;;;;;0.10;0.10;;;;;;;4.04;100.00;99591.81;6225236;22;20442;-78
2024/03/04 07:54:59;;;;;;;0.00;0.00;;;;;;;4.17;100.00;99589.59;6224675;22;20012;-76
2024/03/04 07:57:27;;;;;;;0.10;0.10;;;;;;;4.21;100.00;99589.97;6278876;22;20342;-76
2024/03/04 07:59:57;;;;;;;0.00;0.00;;;;;;;4.20;100.00;99580.19;6228038;22;20008;-77
2024/03/04 08:02:24;;;;;;;0.00;0.00;;;;;;;4.28;100.00;99590.63;6225634;22;20114;-73
2024/03/04 08:04:58;;;;;;;0.00;0.00;;;;;;;4.28;100.00;99584.38;6197387;22;20012;-73
2024/03/04 08:07:24;;;;;;;;;;;;;;;4.40;100.00;99589.72;6223797;22;20015;-71
2024/03/04 08:09:49;;;;;;;0.00;0.00;;;;;;;4.46;100.00;99583.31;6275548;22;20331;-72
2024/03/04 08:12:15;;;;;;;0.00;0.00;;;;;;;4.47;100.00;99572.25;6224776;22;20076;-75
2024/03/04 08:14:49;;;;;;;0.10;0.10;;;;;;;4.55;100.00;99562.88;6225762;22;20016;-74
2024/03/04 08:17:17;;;;;;;0.00;0.00;;;;;;;4.60;100.00;99538.59;6247166;22;20008;-74
2024/03/04 08:19:46;;;;;;;0.00;0.00;;;;;;;4.84;100.00;99554.66;6248821;22;20388;-73
2024/03/04 08:22:12;;;;;;;0.10;0.10;;;;;;;4.98;100.00;99555.09;6252184;22;20434;-74
2024/03/04 08:24:41;;;;;;;0.00;0.00;;;;;;;5.12;100.00;99561.78;6223735;22;20021;-72
2024/03/04 08:27:15;;;;;;;0.00;0.00;;;;;;;5.25;100.00;99571.44;6250551;22;20003;-74
2024/03/04 08:29:45;;;;;;;0.10;0.10;;;;;;;5.37;100.00;99574.03;6277122;22;20023;-73
2024/03/04 08:32:10;;;;;;;0.00;0.00;;;;;;;5.66;100.00;99566.50;6253233;22;19992;-74
2024/03/04 08:34:56;;;;;;;0.00;0.00;;;;;;;5.96;99.45;99543.50;6201993;22;20031;-75
2024/03/04 08:37:22;;;;;;;0.00;0.00;;;;;;;6.30;97.36;99570.41;6253474;22;20003;-75
2024/03/04 08:39:54;;;;;;;0.00;0.00;;;;;;;6.53;97.21;99546.72;6221925;22;20433;-75
2024/03/04 08:42:26;;;;;;;0.00;0.00;;;;;;;6.82;96.13;99539.03;6227504;22;20003;-75
2024/03/04 08:44:56;;;;;;;0.00;0.00;;;;;;;7.16;94.66;99506.81;6254797;22;19996;-74
2024/03/04 08:47:42;;;;;;;0.00;0.00;;;;;;;7.47;92.34;99525.16;6227070;22;20270;-75
2024/03/04 08:50:10;;;;;;;0.00;0.00;;;;;;;8.08;91.71;99561.78;6280566;22;20054;-74
2024/03/04 08:52:47;;;;;;;0.00;0.00;;;;;;;8.51;89.52;99533.22;6251214;22;20074;-74
2024/03/04 08:55:12;;;;;;;0.00;0.00;;;;;;;9.16;86.64;99558.97;6253719;22;20004;-75
2024/03/04 08:58:05;;;;;;;;;;;;;;;;;;;;;
2024/03/04 09:00:31;;;;;;;0.00;0.00;;;;;;;10.36;84.27;99534.28;6238682;22;20014;-74
2024/03/04 09:02:57;;;;;;;0.00;0.00;;;;;;;11.92;77.01;99545.91;6277943;22;20326;-73
2024/03/04 09:05:35;;;;;;;;;;;;;;;;;;;;;
2024/03/04 09:08:19;;;;;;;0.00;0.00;;;;;;;12.55;70.42;99502.69;6261103;22;20047;-74
2024/03/04 09:10:44;;;;;;;0.00;0.00;;;;;;;12.65;69.68;99551.88;6286653;22;20010;-75
2024/03/04 09:13:10;;;;;;;0.00;0.00;;;;;;;12.42;70.14;99530.91;6252888;22;20003;-73
2024/03/04 09:15:41;;;;;;;0.00;0.00;;;;;;;14.43;67.59;99542.13;6255915;22;20011;-75
2024/03/04 09:18:06;;;;;;;0.00;0.00;;;;;;;16.06;58.87;99548.06;6277902;22;20476;-75
2024/03/04 09:20:32;;;;;;;0.00;0.00;;;;;;;16.57;57.42;99532.63;6255498;22;20015;-75
2024/03/04 09:23:06;;;;;;;0.00;0.00;;;;;;;18.42;51.89;99529.66;6254243;22;20014;-75
2024/03/04 09:25:35;;;;;;;0.00;0.00;;;;;;;18.70;50.25;99540.13;6255992;22;20075;-74
2024/03/04 09:28:02;;;;;;;0.00;0.00;;;;;;;17.75;49.80;99524.00;6250743;22;20053;-74
2024/03/04 09:30:28;;;;;;;0.00;0.00;;;;;;;16.43;52.43;99526.50;6275914;22;19995;-71
2024/03/04 09:32:54;;;;;;;0.10;0.10;;;;;;;15.25;54.95;99521.84;6250721;22;20024;-72
2024/03/04 09:35:19;;;;;;;0.00;0.00;;;;;;;14.11;57.29;99480.75;6275324;22;20050;-73
2024/03/04 09:37:44;;;;;;;0.00;0.00;;;;;;;14.10;59.01;99525.06;6249438;22;20038;-72
2024/03/04 09:40:11;;;;;;;0.00;0.00;;;;;;;14.63;59.99;99540.00;6275347;22;20008;-73
2024/03/04 09:42:41;;;;;;;0.00;0.00;;;;;;;15.53;58.07;99523.19;6222407;22;20688;-73
2024/03/04 09:45:09;;;;;;;0.00;0.00;;;;;;;16.36;55.56;99526.19;6249278;22;20039;-72
2024/03/04 09:47:36;;;;;;;0.00;0.00;;;;;;;16.64;54.17;99532.13;6273977;22;20453;-75
2024/03/04 09:50:05;;;;;;;0.00;0.00;;;;;;;16.09;53.03;99530.91;6228135;22;20003;-75
2024/03/04 09:52:44;;;;;;;0.00;0.00;;;;;;;15.47;54.07;99513.44;6248238;22;20094;-74
2024/03/04 09:55:18;;;;;;;0.00;0.00;;;;;;;15.78;54.30;99518.06;6251427;22;19999;-73
2024/03/04 09:58:03;;;;;;;0.00;0.00;;;;;;;15.85;53.59;99517.59;6273624;22;20051;-74
2024/03/04 10:00:33;;;;;;;0.00;0.00;;;;;;;15.13;54.60;99495.72;6252267;22;20007;-73
2024/03/04 10:03:08;;;;;;;;;;;;;;;;;;;;;
2024/03/04 10:05:37;;;;;;;0.00;0.00;;;;;;;17.90;49.90;99481.94;6252977;22;20083;-74
2024/03/04 10:08:08;;;;;;;0.00;0.00;;;;;;;20.35;44.58;99506.47;6246204;22;20020;-73
2024/03/04 10:10:43;;;;;;;0.00;0.00;;;;;;;21.97;41.52;99501.28;6228262;22;20015;-73
2024/03/04 10:13:12;;;;;;;0.00;0.00;;;;;;;24.23;38.31;99523.00;6222165;22;20455;-71
2024/03/04 10:15:40;;;;;;;0.00;0.00;;;;;;;25.89;34.09;99516.88;6249729;22;20351;-73
2024/03/04 10:18:26;;;;;;;0.00;0.00;;;;;;;26.41;32.35;99482.25;6246430;22;20433;-74
2024/03/04 10:20:55;;;;;;;0.00;0.00;;;;;;;27.45;31.62;99509.59;6277940;22;20003;-75
2024/03/04 10:23:26;;;;;;;0.05;0.05;;;;;;;27.86;30.21;99501.50;6253459;22;20016;-76
2024/03/04 10:26:08;;;;;;;0.00;0.00;;;;;;;27.64;29.23;99500.75;6227891;22;20000;-74
2024/03/04 10:28:41;;;;;;;0.00;0.00;;;;;;;27.96;28.38;99511.06;6223625;22;20000;-73
2024/03/04 10:31:40;;;;;;;0.00;0.00;;;;;;;28.69;27.66;99501.13;6251012;22;19992;-74
2024/03/04 10:34:06;;;;;;;0.00;0.00;;;;;;;28.71;26.37;99498.69;6235646;22;20063;-76
2024/03/04 10:36:31;;;;;;;0.00;0.00;;;;;;;27.18;27.44;99504.41;6251513;22;20003;-73
2024/03/04 10:38:57;;;;;;;0.00;0.00;;;;;;;26.95;28.51;99469.13;6251467;22;20000;-75
2024/03/04 10:41:23;;;;;;;0.00;0.00;;;;;;;26.54;27.74;99497.50;6251791;22;20013;-74
2024/03/04 10:43:51;;;;;;;0.00;0.00;;;;;;;24.56;26.83;99480.25;6249383;22;20030;-75
2024/03/04 10:46:22;;;;;;;0.00;0.00;;;;;;;22.66;28.47;99447.72;6253400;22;20027;-74
2024/03/04 10:49:00;;;;;;;0.00;0.00;;;;;;;20.61;29.91;99487.72;6248103;22;20484;-72
2024/03/04 10:51:35;;;;;;;0.00;0.00;;;;;;;18.72;32.81;99493.50;6249840;22;20450;-73
2024/03/04 10:54:03;;;;;;;0.00;0.00;;;;;;;17.79;35.39;99486.22;6226143;22;20008;-74
2024/03/04 10:57:26;;;;;;;0.00;0.00;;;;;;;17.66;35.90;99468.75;6253810;22;20011;-75
2024/03/04 11:03:16;;;;;;;;;;;;;;;;;;;;;
2024/03/04 11:05:50;;;;;;;0.00;0.00;;;;;;;13.89;41.32;99412.88;6280387;22;20038;-76
2024/03/04 11:09:17;;;;;;;0.00;0.00;;;;;;;13.71;42.33;99471.56;6245024;23;20069;-74
2024/03/04 11:16:19;;;;;;;;;;;;;;;;;;;;;
2024/03/04 11:19:35;;;;;;;;;;;;;;;;;;;;;
2024/03/04 11:22:12;;;;;;;;;;;;;;;;;;;;;
2024/03/04 11:24:41;;;;;;;0.00;0.00;;;;;;;11.32;50.32;99440.50;6248743;23;20031;-76
2024/03/04 11:27:52;;;;;;;;;;;;;;;;;;;;;
2024/03/04 11:30:21;;;;;;;0.00;0.00;;;;;;;11.28;50.46;99466.81;6201955;23;20095;-73
2024/03/04 11:33:53;;;;;;;;;;;;;;;;;;;;;
2024/03/04 11:36:43;;;;;;;0.00;0.00;;;;;;;11.00;51.36;99409.16;6245251;23;20030;-74
2024/03/04 11:39:47;;;;;;;;;;;;;;;;;;;;;
2024/03/04 11:42:44;;;;;;;0.00;0.00;;;;;;;10.69;52.22;99388.78;6231014;22;20075;-77
2024/03/04 11:46:11;;;;;;;0.10;0.10;;;;;;;10.92;52.23;99453.59;6246508;23;20062;-74
2024/03/04 11:48:37;;;;;;;0.00;0.00;;;;;;;10.53;53.17;99386.25;6114379;23;20016;-76
2024/03/04 11:54:35;;;;;;;0.00;0.00;;;;;;;10.82;54.14;99431.84;6226709;22;20019;-74
2024/03/04 11:57:17;;;;;;;0.00;0.00;;;;;;;10.97;54.12;99431.66;6248735;23;20004;-78
2024/03/04 12:00:22;;;;;;;0.00;0.00;;;;;;;10.96;53.92;99399.91;6248140;23;20004;-73
2024/03/04 12:03:10;;;;;;;0.00;0.00;;;;;;;10.91;53.63;99361.72;6245183;23;20038;-76
2024/03/04 12:09:39;;;;;;;;;;;;;;;;;;;;;
2024/03/04 12:12:51;;;;;;;;;;;;;;;;;;;;;
2024/03/04 12:18:29;;;;;;;0.00;0.00;;;;;;;12.83;48.83;99421.25;6096946;23;20018;-73
2024/03/04 12:21:08;;;;;;;0.00;0.00;;;;;;;13.57;47.84;99405.69;6146975;23;20016;-76
2024/03/04 12:24:16;;;;;;;;;;;;;;;;;;;;;
2024/03/04 12:27:20;;;;;;;0.00;0.00;;;;;;;15.05;43.28;99386.34;6214962;23;20039;-72